Time;durP1;ratioP1;P1;durP2;ratioP2;P2;SDS_P1;SDS_P2;PMS_P1;PMS_P2;Temp;Humidity;BMP_temperature;BMP_pressure;BME280_temperature;BME280_humidity;BME280_pressure;Samples;Min_cycle;Max_cycle;Signal;HPM_P1;HPM_P2
2022/08/16 00:00:00;;;;;;;14.75;4.62;;;;;;;24.37;61.03;99274.50;1707270;84;22082;-69
2022/08/16 00:02:27;;;;;;;12.75;4.50;;;;;;;24.32;60.35;99277.69;1707108;83;21713;-69
2022/08/16 00:04:53;;;;;;;9.35;3.95;;;;;;;24.30;60.25;99289.11;1706879;84;21624;-69
2022/08/16 00:07:20;;;;;;;10.63;4.10;;;;;;;24.29;60.07;99287.41;1707299;84;21089;-70
2022/08/16 00:09:46;;;;;;;10.35;4.40;;;;;;;24.31;59.92;99293.47;1707052;84;21428;-70
2022/08/16 00:12:12;;;;;;;6.87;4.37;;;;;;;24.31;59.63;99291.29;1707254;84;21054;-69
2022/08/16 00:14:39;;;;;;;15.38;4.60;;;;;;;24.31;60.41;99289.44;1707005;83;21568;-69
2022/08/16 00:17:05;;;;;;;17.55;4.60;;;;;;;24.29;60.64;99292.79;1711819;83;21147;-69
2022/08/16 00:19:33;;;;;;;19.90;4.75;;;;;;;24.26;59.84;99297.17;1720197;83;21533;-68
2022/08/16 00:21:59;;;;;;;8.73;4.22;;;;;;;24.27;60.05;99312.28;1720270;83;21604;-68
2022/08/16 00:24:26;;;;;;;10.30;4.65;;;;;;;24.26;60.46;99313.31;1720274;82;21068;-69
2022/08/16 00:26:53;;;;;;;12.53;4.35;;;;;;;24.25;60.66;99329.13;1720158;83;21223;-69
2022/08/16 00:29:19;;;;;;;12.55;4.58;;;;;;;24.23;60.59;99331.97;1720193;83;21168;-69
2022/08/16 00:31:49;;;;;;;10.10;4.60;;;;;;;24.19;62.16;99335.98;1720094;83;21180;-69
2022/08/16 00:34:16;;;;;;;8.68;4.15;;;;;;;24.14;63.30;99346.91;1720293;83;21124;-69
2022/08/16 00:36:45;;;;;;;9.60;4.97;;;;;;;24.03;63.97;99339.97;1719978;83;21084;-70
2022/08/16 00:39:14;;;;;;;12.00;4.10;;;;;;;23.93;63.19;99345.48;1720365;83;21481;-70
2022/08/16 00:41:41;;;;;;;15.30;4.80;;;;;;;23.86;63.76;99341.25;1720093;83;21153;-68
2022/08/16 00:44:10;;;;;;;10.30;4.35;;;;;;;23.82;64.02;99341.23;1720340;82;21116;-69
2022/08/16 00:46:42;;;;;;;16.20;4.95;;;;;;;23.79;63.42;99351.48;1720505;83;21108;-69
2022/08/16 00:49:10;;;;;;;12.15;4.87;;;;;;;23.76;63.77;99349.92;1720337;83;21092;-70
2022/08/16 00:51:36;;;;;;;16.67;5.40;;;;;;;23.73;65.24;99353.42;1720669;82;21104;-69
2022/08/16 00:54:03;;;;;;;12.50;4.87;;;;;;;23.64;66.16;99364.62;1723792;83;21053;-70
2022/08/16 00:56:34;;;;;;;13.88;4.60;;;;;;;23.52;67.67;99361.37;1725798;82;21100;-70
2022/08/16 00:59:00;;;;;;;;;;;;;;;23.37;68.63;99360.25;1693578;84;21140;-69
2022/08/16 01:01:27;;;;;;;16.35;5.05;;;;;;;23.24;69.43;99357.49;1650336;85;20183;-69
2022/08/16 01:03:54;;;;;;;20.17;6.20;;;;;;;23.15;69.19;99378.58;1663132;86;21253;-69
2022/08/16 01:06:20;;;;;;;21.80;6.25;;;;;;;23.04;72.46;99388.22;1663349;86;21056;-71
2022/08/16 01:08:50;;;;;;;11.83;4.62;;;;;;;22.94;73.72;99372.17;1663155;86;21600;-69
2022/08/16 01:11:18;;;;;;;14.78;5.40;;;;;;;22.75;76.28;99371.84;1660987;86;21115;-70
2022/08/16 01:13:45;;;;;;;11.30;4.90;;;;;;;22.56;78.50;99362.07;1663482;86;21045;-70
2022/08/16 01:16:21;;;;;;;12.00;5.20;;;;;;;22.37;80.02;99366.23;1663066;85;21235;-70
2022/08/16 01:18:55;;;;;;;9.55;4.85;;;;;;;22.21;80.85;99362.88;1651691;86;21576;-70
2022/08/16 01:21:57;;;;;;;14.63;4.92;;;;;;;22.12;81.28;99348.49;1678679;85;21049;-70
2022/08/16 01:24:39;;;;;;;8.95;4.90;;;;;;;22.05;81.95;99333.16;1713364;83;21021;-69
2022/08/16 01:27:14;;;;;;;9.35;4.97;;;;;;;21.98;81.28;99322.19;1712965;83;21041;-69
2022/08/16 01:29:52;;;;;;;11.90;5.58;;;;;;;21.96;82.61;99320.98;1713004;82;21125;-69
2022/08/16 01:32:19;;;;;;;12.05;5.53;;;;;;;21.89;84.11;99325.77;1712786;82;21186;-68
2022/08/16 01:34:45;;;;;;;13.25;5.83;;;;;;;21.81;85.82;99319.81;1713300;83;21716;-68
2022/08/16 01:37:13;;;;;;;10.23;5.60;;;;;;;21.73;87.84;99322.38;1712927;82;21531;-69
2022/08/16 01:39:41;;;;;;;16.52;6.45;;;;;;;21.66;89.41;99326.65;1713181;83;21019;-69
2022/08/16 01:42:08;;;;;;;14.63;6.85;;;;;;;21.54;91.17;99328.17;1713028;83;21273;-70
2022/08/16 01:44:39;;;;;;;8.93;5.95;;;;;;;21.46;91.28;99322.69;1712973;82;22140;-69
2022/08/16 01:47:05;;;;;;;15.43;6.25;;;;;;;21.42;90.74;99328.48;1713210;83;21157;-70
2022/08/16 01:49:37;;;;;;;18.90;6.70;;;;;;;21.40;90.18;99317.93;1713259;82;21030;-71
2022/08/16 01:52:13;;;;;;;14.87;6.22;;;;;;;21.42;90.79;99323.13;1713543;82;21545;-70
2022/08/16 01:54:47;;;;;;;12.03;6.05;;;;;;;21.39;91.18;99325.56;1708864;83;22084;-70
2022/08/16 01:57:14;;;;;;;17.07;6.65;;;;;;;21.40;89.82;99331.33;1727455;82;21046;-69
2022/08/16 01:59:41;;;;;;;12.18;6.37;;;;;;;21.43;89.88;99328.34;1727379;82;21101;-69
2022/08/16 02:02:10;;;;;;;13.30;6.80;;;;;;;21.45;89.46;99328.20;1713049;82;21023;-69
2022/08/16 02:04:37;;;;;;;15.10;6.00;;;;;;;21.45;89.39;99318.33;1713038;83;21061;-70
2022/08/16 02:07:07;;;;;;;14.43;6.15;;;;;;;21.45;89.04;99318.33;1713530;83;21197;-69
2022/08/16 02:09:32;;;;;;;17.32;6.35;;;;;;;21.44;88.77;99309.96;1712887;82;21617;-68
2022/08/16 02:11:59;;;;;;;12.40;6.30;;;;;;;21.45;89.69;99316.99;1713308;83;21573;-68
2022/08/16 02:14:27;;;;;;;11.55;6.17;;;;;;;21.40;89.97;99309.03;1713135;83;21531;-68
2022/08/16 02:17:00;;;;;;;16.80;6.40;;;;;;;21.36;90.15;99308.46;1713313;83;21065;-68
2022/08/16 02:19:28;;;;;;;13.80;6.17;;;;;;;21.32;91.07;99311.08;1713027;83;21508;-68
2022/08/16 02:21:55;;;;;;;13.78;6.05;;;;;;;21.25;90.70;99305.95;1712903;83;21058;-68
2022/08/16 02:24:21;;;;;;;21.23;7.47;;;;;;;21.21;90.05;99302.73;1702987;83;21621;-69
2022/08/16 02:26:48;;;;;;;17.15;6.42;;;;;;;21.21;90.58;99312.58;1713006;83;21586;-68
2022/08/16 02:29:19;;;;;;;19.17;6.60;;;;;;;21.18;90.86;99315.56;1713279;83;21085;-68
2022/08/16 02:31:48;;;;;;;12.63;6.08;;;;;;;21.13;91.02;99310.64;1712842;83;21215;-68
2022/08/16 02:34:14;;;;;;;16.42;6.12;;;;;;;21.10;90.62;99313.61;1712929;83;21412;-69
2022/08/16 02:36:41;;;;;;;11.48;5.90;;;;;;;21.10;90.41;99301.06;1712978;83;21078;-69
2022/08/16 02:39:09;;;;;;;17.60;6.67;;;;;;;21.08;90.86;99287.48;1712950;82;21063;-68
2022/08/16 02:41:37;;;;;;;13.10;6.53;;;;;;;21.06;91.47;99292.97;1713000;83;21137;-69
2022/08/16 02:44:04;;;;;;;12.37;6.05;;;;;;;21.01;91.68;99281.86;1712929;83;21859;-69
2022/08/16 02:46:33;;;;;;;17.15;6.25;;;;;;;20.98;91.43;99284.83;1712940;83;21074;-69
2022/08/16 02:49:00;;;;;;;9.95;6.35;;;;;;;20.97;91.73;99281.78;1712964;83;21050;-68
2022/08/16 02:51:27;;;;;;;10.85;6.08;;;;;;;20.94;92.54;99284.76;1713241;83;21549;-69
2022/08/16 02:53:53;;;;;;;14.23;6.30;;;;;;;20.90;92.43;99283.35;1712962;83;21578;-68
2022/08/16 02:56:20;;;;;;;12.82;6.42;;;;;;;20.88;92.97;99296.87;1713125;83;21136;-71
2022/08/16 02:58:49;;;;;;;18.95;7.25;;;;;;;20.85;92.45;99288.30;1712828;83;21085;-68
2022/08/16 03:01:24;;;;;;;12.68;6.85;;;;;;;20.86;92.72;99291.31;1713008;83;21012;-69
2022/08/16 03:03:53;;;;;;;11.85;6.50;;;;;;;20.84;93.22;99286.59;1712903;83;21089;-69
2022/08/16 03:06:21;;;;;;;11.80;6.08;;;;;;;20.83;93.39;99285.75;1712330;83;21065;-69
2022/08/16 03:08:48;;;;;;;16.32;7.05;;;;;;;20.81;93.24;99289.56;1702892;83;21122;-68
2022/08/16 03:11:16;;;;;;;19.17;6.95;;;;;;;20.80;93.34;99283.84;1712893;83;21038;-69
2022/08/16 03:13:47;;;;;;;15.50;6.45;;;;;;;20.80;93.61;99279.83;1703193;83;21058;-68
2022/08/16 03:16:14;;;;;;;13.45;6.80;;;;;;;20.77;93.96;99281.46;1713128;82;21057;-69
2022/08/16 03:18:41;;;;;;;17.48;6.78;;;;;;;20.76;94.40;99273.10;1720594;82;21105;-68
2022/08/16 03:21:09;;;;;;;17.48;6.65;;;;;;;20.74;95.09;99268.72;1725947;83;21253;-69
2022/08/16 03:23:35;;;;;;;16.07;6.78;;;;;;;20.71;94.40;99271.69;1725939;83;21533;-70
2022/08/16 03:26:02;;;;;;;14.65;6.97;;;;;;;20.71;94.47;99266.34;1725769;83;21509;-69
2022/08/16 03:28:29;;;;;;;9.23;6.10;;;;;;;20.71;93.96;99266.34;1725975;82;21072;-68
2022/08/16 03:30:55;;;;;;;15.25;6.97;;;;;;;20.74;94.09;99267.88;1725745;83;21057;-68
2022/08/16 03:33:22;;;;;;;14.00;6.80;;;;;;;20.73;93.91;99276.41;1725853;83;21472;-69
2022/08/16 03:35:58;;;;;;;11.85;5.55;;;;;;;20.74;93.46;99287.95;1725625;82;21044;-69
2022/08/16 03:38:23;;;;;;;14.87;6.67;;;;;;;20.80;92.78;99287.86;1725393;83;21065;-68
2022/08/16 03:40:50;;;;;;;18.35;6.72;;;;;;;20.84;92.73;99289.27;1725428;83;21075;-68
2022/08/16 03:43:18;;;;;;;12.75;6.33;;;;;;;20.87;91.74;99289.00;1725738;83;21050;-70
2022/08/16 03:45:46;;;;;;;14.18;6.60;;;;;;;20.92;92.26;99296.10;1725728;83;21219;-69
2022/08/16 03:48:13;;;;;;;8.33;6.58;;;;;;;20.94;91.81;99300.81;1725859;83;21061;-68
2022/08/16 03:50:40;;;;;;;13.45;6.28;;;;;;;20.96;92.34;99300.19;1725556;82;21002;-68
2022/08/16 03:53:06;;;;;;;14.78;6.45;;;;;;;20.97;92.36;99309.05;1724424;83;20997;-69
2022/08/16 03:55:33;;;;;;;10.20;6.87;;;;;;;20.95;92.52;99299.81;1720497;82;21077;-68
2022/08/16 03:58:00;;;;;;;14.73;6.70;;;;;;;20.98;92.46;99303.56;1720313;83;21275;-69
2022/08/16 04:00:28;;;;;;;14.78;7.47;;;;;;;20.99;92.63;99304.41;1720484;83;21078;-69
2022/08/16 04:02:57;;;;;;;15.70;7.55;;;;;;;21.00;93.32;99297.55;1692112;83;21166;-69
2022/08/16 04:05:24;;;;;;;20.48;7.65;;;;;;;20.99;93.76;99296.38;1720458;83;21525;-68
2022/08/16 04:07:51;;;;;;;13.95;6.58;;;;;;;21.00;93.91;99292.20;1720233;83;21117;-69
2022/08/16 04:10:18;;;;;;;12.60;6.97;;;;;;;21.01;94.20;99300.59;1720412;83;21164;-69
2022/08/16 04:12:45;;;;;;;14.38;6.78;;;;;;;21.01;94.54;99295.23;1720063;83;21041;-69
2022/08/16 04:15:14;;;;;;;14.75;6.53;;;;;;;21.03;94.98;99297.28;1720452;83;21092;-69
2022/08/16 04:17:43;;;;;;;9.80;6.90;;;;;;;21.04;95.16;99289.59;1720263;82;21052;-68
2022/08/16 04:20:12;;;;;;;15.50;7.28;;;;;;;21.07;95.12;99285.30;1720275;83;21068;-70
2022/08/16 04:22:41;;;;;;;14.05;7.30;;;;;;;21.12;95.19;99286.20;1720486;83;21084;-68
2022/08/16 04:25:08;;;;;;;15.93;7.03;;;;;;;21.16;95.06;99293.80;1720155;82;21338;-69
2022/08/16 04:27:35;;;;;;;15.43;6.75;;;;;;;21.22;95.27;99290.19;1720470;83;21069;-70
2022/08/16 04:30:07;;;;;;;15.38;7.47;;;;;;;21.28;95.31;99282.89;1720374;83;21005;-69
2022/08/16 04:32:36;;;;;;;13.65;7.05;;;;;;;21.36;95.65;99284.36;1720595;82;21124;-69
2022/08/16 04:35:06;;;;;;;16.93;7.15;;;;;;;21.50;94.84;99282.56;1720490;83;21235;-69
2022/08/16 04:37:34;;;;;;;15.95;6.75;;;;;;;21.65;94.35;99279.39;1720475;83;21074;-68
2022/08/16 04:40:04;;;;;;;17.42;7.55;;;;;;;21.80;93.87;99279.25;1719253;83;21076;-69
2022/08/16 04:42:31;;;;;;;14.90;6.83;;;;;;;21.93;92.96;99285.11;1693914;83;21109;-68
2022/08/16 04:44:58;;;;;;;13.53;7.15;;;;;;;22.10;91.67;99286.63;1720399;83;21334;-69
2022/08/16 04:47:30;;;;;;;12.43;6.62;;;;;;;22.26;90.22;99285.48;1720307;82;21603;-69
2022/08/16 04:49:58;;;;;;;11.95;6.40;;;;;;;22.43;89.48;99289.19;1720734;83;21022;-69
2022/08/16 04:52:24;;;;;;;11.03;6.17;;;;;;;22.68;87.80;99292.91;1720559;83;21068;-70
2022/08/16 04:54:50;;;;;;;12.05;5.78;;;;;;;22.97;85.43;99286.44;1725748;83;21034;-69
2022/08/16 04:57:17;;;;;;;9.53;5.30;;;;;;;23.25;83.41;99279.09;1725977;83;21065;-69
2022/08/16 04:59:45;;;;;;;11.65;5.78;;;;;;;23.48;81.83;99292.81;1733863;82;21519;-69
2022/08/16 05:02:11;;;;;;;9.25;5.20;;;;;;;23.66;80.93;99302.98;1725867;83;21097;-69
2022/08/16 05:04:37;;;;;;;9.48;5.78;;;;;;;23.84;78.53;99290.83;1725812;83;21629;-70
2022/08/16 05:07:04;;;;;;;13.05;5.58;;;;;;;24.06;78.14;99289.41;1725914;83;22265;-68
2022/08/16 05:09:42;;;;;;;8.83;5.47;;;;;;;24.31;75.71;99292.13;1727113;82;21002;-70
2022/08/16 05:12:08;;;;;;;16.52;5.17;;;;;;;24.44;72.80;99281.72;1725997;83;21256;-68
2022/08/16 05:14:35;;;;;;;14.43;5.30;;;;;;;24.55;72.70;99283.77;1734058;82;21104;-70
2022/08/16 05:17:02;;;;;;;7.65;5.12;;;;;;;24.66;72.14;99296.90;1725833;83;21120;-70
2022/08/16 05:19:28;;;;;;;15.93;4.62;;;;;;;24.76;70.75;99299.45;1725927;82;21037;-69
2022/08/16 05:21:57;;;;;;;10.15;4.70;;;;;;;24.85;69.36;99308.70;1726569;82;21566;-69
2022/08/16 05:24:23;;;;;;;12.35;5.10;;;;;;;24.97;68.67;99315.09;1725953;83;21207;-70
2022/08/16 05:26:50;;;;;;;12.28;5.10;;;;;;;24.98;68.05;99326.19;1725985;83;21013;-69
2022/08/16 05:29:16;;;;;;;12.50;5.37;;;;;;;24.97;67.63;99336.64;1733902;82;21109;-70
2022/08/16 05:31:45;;;;;;;16.50;5.53;;;;;;;24.79;67.79;99334.94;1726506;82;21081;-68
2022/08/16 05:34:11;;;;;;;13.38;5.87;;;;;;;24.65;69.05;99347.21;1725976;82;21040;-69
2022/08/16 05:36:38;;;;;;;15.05;6.37;;;;;;;24.46;69.45;99349.68;1733848;82;21414;-69
2022/08/16 05:39:07;;;;;;;28.85;10.10;;;;;;;24.35;70.45;99352.68;1725593;83;21041;-69
2022/08/16 05:41:34;;;;;;;32.40;16.23;;;;;;;24.27;70.64;99356.20;1725956;82;21092;-68
2022/08/16 05:44:00;;;;;;;33.78;16.20;;;;;;;24.17;70.55;99354.64;1725928;83;21073;-69
2022/08/16 05:46:29;;;;;;;31.90;17.67;;;;;;;24.07;70.94;99358.82;1726128;82;21088;-69
2022/08/16 05:48:56;;;;;;;17.87;10.48;;;;;;;24.07;71.46;99356.13;1734390;82;21930;-68
2022/08/16 05:51:22;;;;;;;15.50;7.00;;;;;;;24.04;70.94;99361.34;1725892;83;21561;-70
2022/08/16 05:53:49;;;;;;;17.57;6.95;;;;;;;24.02;70.89;99366.03;1723272;83;21181;-69
2022/08/16 05:56:21;;;;;;;18.12;5.67;;;;;;;23.93;71.11;99367.51;1720515;83;21128;-70
2022/08/16 05:58:48;;;;;;;15.63;5.22;;;;;;;23.85;71.16;99370.98;1720760;83;21026;-70
2022/08/16 06:01:15;;;;;;;15.98;5.22;;;;;;;23.82;71.57;99364.59;1720408;83;21947;-69
2022/08/16 06:03:44;;;;;;;10.08;6.15;;;;;;;23.80;72.08;99359.36;1720693;82;21069;-69
2022/08/16 06:06:12;;;;;;;11.03;5.10;;;;;;;23.76;72.28;99354.47;1719756;83;21038;-68
2022/08/16 06:08:39;;;;;;;14.33;5.78;;;;;;;23.74;72.13;99362.72;1720413;83;21077;-69
2022/08/16 06:11:07;;;;;;;15.83;5.55;;;;;;;23.85;71.88;99361.06;1720294;83;21084;-70
2022/08/16 06:13:36;;;;;;;11.83;5.42;;;;;;;24.07;72.04;99352.94;1720552;83;21695;-70
2022/08/16 06:16:05;;;;;;;15.40;5.95;;;;;;;24.18;70.35;99355.84;1720345;83;21104;-70
2022/08/16 06:18:32;;;;;;;15.53;5.42;;;;;;;24.21;70.63;99362.73;1720197;83;21034;-70
2022/08/16 06:20:59;;;;;;;16.40;6.28;;;;;;;24.18;70.62;99356.31;1720391;83;21064;-71
2022/08/16 06:23:26;;;;;;;12.00;5.80;;;;;;;24.18;71.62;99361.70;1720180;83;21045;-70
2022/08/16 06:25:57;;;;;;;10.48;5.55;;;;;;;24.17;71.05;99374.31;1720497;83;21126;-69
2022/08/16 06:28:26;;;;;;;24.75;6.53;;;;;;;24.11;71.12;99373.64;1720169;83;21553;-69
2022/08/16 06:30:53;;;;;;;11.88;5.28;;;;;;;24.09;71.65;99376.98;1720365;82;21131;-69
2022/08/16 06:33:21;;;;;;;13.08;5.60;;;;;;;24.05;71.70;99386.38;1720228;83;21100;-70
2022/08/16 06:35:51;;;;;;;16.70;5.35;;;;;;;23.95;72.44;99388.33;1720624;83;21573;-70
2022/08/16 06:38:17;;;;;;;20.35;5.85;;;;;;;23.83;73.12;99381.05;1719857;83;21248;-71
2022/08/16 06:40:44;;;;;;;12.70;5.12;;;;;;;23.72;73.82;99392.05;1720397;83;21128;-69
2022/08/16 06:43:11;;;;;;;15.20;5.78;;;;;;;23.65;74.62;99407.99;1692230;83;21644;-69
2022/08/16 06:45:47;;;;;;;14.30;6.00;;;;;;;23.58;75.72;99417.19;1719612;83;21030;-69
2022/08/16 06:48:21;;;;;;;13.50;5.95;;;;;;;23.50;75.88;99427.03;1649216;85;21347;-69
2022/08/16 06:50:51;;;;;;;11.83;5.50;;;;;;;23.39;76.95;99434.83;1720524;83;21481;-70
2022/08/16 06:53:18;;;;;;;13.43;6.30;;;;;;;23.35;77.37;99443.72;1711078;83;21049;-70
2022/08/16 06:55:46;;;;;;;13.28;5.75;;;;;;;23.31;77.48;99449.05;1661618;86;21685;-70
2022/08/16 06:58:13;;;;;;;16.55;6.20;;;;;;;23.27;76.98;99469.66;1661658;86;21100;-71
2022/08/16 07:00:40;;;;;;;13.98;5.87;;;;;;;23.15;75.56;99471.23;1661900;86;21502;-71
2022/08/16 07:03:08;;;;;;;16.12;6.55;;;;;;;23.11;75.10;99483.78;1659279;86;21626;-69
2022/08/16 07:05:36;;;;;;;21.45;7.05;;;;;;;23.10;75.32;99482.08;1661539;86;21048;-70
2022/08/16 07:08:04;;;;;;;18.45;7.47;;;;;;;23.09;74.86;99500.04;1661854;85;21081;-70
2022/08/16 07:10:31;;;;;;;27.58;8.50;;;;;;;23.09;73.73;99496.52;1661828;86;21068;-70
2022/08/16 07:12:57;;;;;;;25.92;9.13;;;;;;;23.07;73.55;99530.22;1672946;85;21049;-69
2022/08/16 07:15:24;;;;;;;40.45;10.80;;;;;;;23.05;74.17;99517.44;1663115;86;21492;-69
2022/08/16 07:17:52;;;;;;;46.58;10.90;;;;;;;23.05;74.26;99520.13;1673662;85;21582;-69
2022/08/16 07:20:21;;;;;;;28.45;10.32;;;;;;;23.07;74.64;99516.80;1667921;85;21074;-72
2022/08/16 07:22:50;;;;;;;22.82;9.20;;;;;;;23.03;75.10;99538.27;1665676;85;21035;-70
2022/08/16 07:25:18;;;;;;;29.67;9.40;;;;;;;22.99;76.11;99522.09;1650949;86;21332;-70
2022/08/16 07:27:46;;;;;;;32.83;7.05;;;;;;;22.93;75.72;99510.58;1712946;83;21147;-71
2022/08/16 07:30:16;;;;;;;23.85;5.92;;;;;;;22.85;75.67;99510.51;1712967;82;21518;-69
2022/08/16 07:32:42;;;;;;;19.98;5.72;;;;;;;22.72;76.10;99514.38;1713148;83;21525;-69
2022/08/16 07:35:09;;;;;;;14.45;5.22;;;;;;;22.62;77.65;99529.70;1712953;83;21101;-69
2022/08/16 07:37:36;;;;;;;25.25;6.70;;;;;;;22.47;81.39;99501.66;1712828;83;21044;-70
2022/08/16 07:40:19;;;;;;;17.82;6.47;;;;;;;22.27;85.44;99504.43;1714006;82;21097;-69
2022/08/16 07:42:46;;;;;;;12.18;6.40;;;;;;;21.99;89.55;99500.33;1712891;83;21034;-69
2022/08/16 07:45:13;;;;;;;19.92;6.28;;;;;;;21.77;92.77;99493.95;1712927;83;21550;-71
2022/08/16 07:47:42;;;;;;;16.62;6.80;;;;;;;21.58;94.28;99494.34;1713229;82;21097;-71
2022/08/16 07:50:10;;;;;;;14.07;6.87;;;;;;;21.38;97.05;99499.32;1702933;83;21057;-70
2022/08/16 07:52:38;;;;;;;12.05;6.50;;;;;;;21.21;99.94;99502.22;1712607;83;21558;-70
2022/08/16 07:55:09;;;;;;;28.17;7.10;;;;;;;21.08;100.00;99502.98;1685927;84;21074;-70
2022/08/16 07:57:36;;;;;;;13.55;6.65;;;;;;;20.93;100.00;99505.20;1706872;84;21096;-68
2022/08/16 08:00:05;;;;;;;18.23;6.05;;;;;;;20.81;100.00;99504.97;1707117;83;21102;-69
2022/08/16 08:02:33;;;;;;;14.90;5.95;;;;;;;20.66;100.00;99517.41;1705757;83;21076;-70
2022/08/16 08:05:00;;;;;;;14.63;6.40;;;;;;;20.58;100.00;99515.88;1707315;84;21696;-70
2022/08/16 08:07:28;;;;;;;16.55;6.85;;;;;;;20.46;100.00;99523.63;1706835;84;21049;-70
2022/08/16 08:09:56;;;;;;;12.03;7.00;;;;;;;20.38;100.00;99524.78;1706987;84;21105;-70
2022/08/16 08:12:23;;;;;;;17.23;6.87;;;;;;;20.28;100.00;99532.27;1707047;84;21446;-69
2022/08/16 08:14:49;;;;;;;16.75;7.62;;;;;;;20.21;100.00;99527.10;1707154;84;21089;-70
2022/08/16 08:17:16;;;;;;;16.62;7.90;;;;;;;20.15;100.00;99531.63;1706977;84;22114;-70
2022/08/16 08:19:44;;;;;;;14.43;7.80;;;;;;;20.07;100.00;99528.79;1707042;83;21089;-70
2022/08/16 08:22:11;;;;;;;13.75;8.70;;;;;;;20.00;100.00;99535.15;1707216;84;21096;-71
2022/08/16 08:24:42;;;;;;;13.83;7.90;;;;;;;19.93;100.00;99537.16;1706636;83;21546;-71
2022/08/16 08:27:09;;;;;;;14.07;8.48;;;;;;;19.89;100.00;99541.41;1706911;84;21585;-71
2022/08/16 08:29:37;;;;;;;14.55;8.63;;;;;;;19.86;100.00;99530.14;1707137;84;21220;-71
2022/08/16 08:34:06;;;;;;;15.53;10.28;;;;;;;19.76;100.00;99523.41;1788719;79;22584;-69
2022/08/16 08:36:35;;;;;;;24.10;10.88;;;;;;;19.69;100.00;99521.74;1747934;82;21007;-71
2022/08/16 08:39:09;;;;;;;24.82;11.57;;;;;;;19.67;100.00;99518.81;1745882;82;21123;-69
2022/08/16 08:41:36;;;;;;;21.37;12.70;;;;;;;19.64;100.00;99511.04;1747881;82;21608;-69
2022/08/16 08:44:03;;;;;;;21.85;11.90;;;;;;;19.64;100.00;99511.04;1748108;82;21048;-69
2022/08/16 08:46:31;;;;;;;23.60;11.40;;;;;;;19.68;100.00;99511.14;1748181;81;21486;-70
2022/08/16 08:48:58;;;;;;;20.45;11.83;;;;;;;19.71;100.00;99509.57;1748430;82;21103;-69
2022/08/16 08:51:25;;;;;;;19.30;12.93;;;;;;;19.76;100.00;99510.05;1747957;82;21393;-69
2022/08/16 08:53:54;;;;;;;21.77;12.35;;;;;;;19.81;100.00;99513.17;1748110;81;20993;-70
2022/08/16 08:56:21;;;;;;;20.20;12.03;;;;;;;19.88;100.00;99500.98;1747995;82;21121;-69
2022/08/16 08:58:48;;;;;;;18.00;12.05;;;;;;;19.97;100.00;99503.82;1747978;82;21089;-70
2022/08/16 09:01:27;;;;;;;18.80;11.33;;;;;;;20.08;100.00;99502.41;1747742;82;21085;-69
2022/08/16 09:03:54;;;;;;;20.68;12.07;;;;;;;20.16;100.00;99503.94;1696494;82;21237;-71
2022/08/16 09:06:21;;;;;;;20.60;10.65;;;;;;;20.22;100.00;99507.89;1748209;82;21248;-69
2022/08/16 09:08:48;;;;;;;17.77;11.25;;;;;;;20.27;100.00;99512.38;1748066;82;20998;-70
2022/08/16 09:11:17;;;;;;;17.87;10.10;;;;;;;20.33;100.00;99510.48;1748198;82;21065;-69
2022/08/16 09:13:46;;;;;;;22.27;10.75;;;;;;;20.40;100.00;99500.09;1747715;82;21033;-70
2022/08/16 09:16:15;;;;;;;16.37;10.30;;;;;;;20.53;100.00;99500.21;1748305;82;21189;-70
2022/08/16 09:18:44;;;;;;;23.87;11.30;;;;;;;20.63;100.00;99513.64;1747736;82;21088;-70
2022/08/16 09:21:11;;;;;;;20.08;10.68;;;;;;;20.66;100.00;99512.05;1747972;82;21486;-69
2022/08/16 09:23:38;;;;;;;27.48;10.53;;;;;;;20.70;100.00;99514.78;1717998;82;21026;-69
2022/08/16 09:26:09;;;;;;;22.93;10.38;;;;;;;20.77;100.00;99520.94;1747844;82;21026;-69
2022/08/16 09:28:38;;;;;;;18.65;10.30;;;;;;;20.83;100.00;99525.25;1747704;82;21136;-70
2022/08/16 09:31:06;;;;;;;20.75;10.98;;;;;;;20.89;100.00;99529.20;1746105;82;21001;-69
2022/08/16 09:33:33;;;;;;;17.25;11.20;;;;;;;20.92;100.00;99524.43;1748322;82;21092;-69
2022/08/16 09:36:00;;;;;;;20.72;10.95;;;;;;;21.03;100.00;99522.63;1748645;82;21089;-70
2022/08/16 09:38:26;;;;;;;22.98;12.10;;;;;;;21.11;100.00;99525.45;1748574;82;21050;-69
2022/08/16 09:40:56;;;;;;;22.30;10.95;;;;;;;21.19;100.00;99526.08;1748585;82;21128;-69
2022/08/16 09:43:22;;;;;;;16.02;10.88;;;;;;;21.28;100.00;99530.13;1748441;82;21038;-68
2022/08/16 09:45:48;;;;;;;22.67;11.50;;;;;;;21.41;100.00;99535.72;1748255;82;21588;-70
2022/08/16 09:48:15;;;;;;;26.75;11.18;;;;;;;21.52;100.00;99539.59;1748464;82;21041;-70
2022/08/16 09:50:42;;;;;;;18.12;10.48;;;;;;;21.61;100.00;99532.55;1748307;82;21553;-69
2022/08/16 09:53:16;;;;;;;17.98;10.58;;;;;;;21.66;100.00;99526.27;1740279;82;21869;-69
2022/08/16 09:55:45;;;;;;;17.70;10.88;;;;;;;21.81;100.00;99523.50;1718442;83;21088;-70
2022/08/16 09:58:13;;;;;;;15.60;9.55;;;;;;;22.00;100.00;99527.47;1718576;83;21122;-69
2022/08/16 10:00:39;;;;;;;19.15;10.38;;;;;;;22.22;100.00;99525.96;1718470;83;21085;-70
2022/08/16 10:03:06;;;;;;;16.82;10.13;;;;;;;22.40;100.00;99527.72;1718408;83;21068;-69
2022/08/16 10:05:36;;;;;;;18.90;10.38;;;;;;;22.51;100.00;99535.25;1718341;83;21282;-68
2022/08/16 10:08:06;;;;;;;17.12;10.03;;;;;;;22.62;100.00;99527.84;1718257;83;21093;-70
2022/08/16 10:10:34;;;;;;;23.65;10.40;;;;;;;22.70;100.00;99526.25;1718253;83;21620;-70
2022/08/16 10:13:13;;;;;;;17.23;9.93;;;;;;;22.58;100.00;99518.40;1718101;83;21048;-70
2022/08/16 10:15:43;;;;;;;17.30;9.80;;;;;;;22.50;100.00;99513.42;1718442;83;21108;-70
2022/08/16 10:18:11;;;;;;;16.20;8.93;;;;;;;22.47;100.00;99507.86;1718558;83;21239;-70
2022/08/16 10:20:42;;;;;;;17.55;8.43;;;;;;;22.43;100.00;99520.37;1718519;83;21049;-70
2022/08/16 10:23:12;;;;;;;16.32;7.95;;;;;;;22.35;100.00;99519.28;1718607;83;21085;-70
2022/08/16 10:25:41;;;;;;;15.05;8.50;;;;;;;22.23;100.00;99520.97;1718544;83;21093;-70
2022/08/16 10:28:08;;;;;;;16.30;8.40;;;;;;;22.04;100.00;99525.83;1718403;83;21056;-70
2022/08/16 10:30:36;;;;;;;20.55;9.38;;;;;;;22.00;100.00;99529.31;1718301;83;21128;-69
2022/08/16 10:33:03;;;;;;;12.33;8.60;;;;;;;22.02;100.00;99526.47;1714129;83;21077;-69
2022/08/16 10:35:31;;;;;;;20.20;8.50;;;;;;;22.06;100.00;99528.72;1704752;84;21422;-70
2022/08/16 10:37:57;;;;;;;15.05;8.03;;;;;;;22.16;100.00;99529.55;1704745;84;21054;-68
2022/08/16 10:40:24;;;;;;;20.62;9.33;;;;;;;22.34;100.00;99532.36;1704976;84;21153;-69
2022/08/16 10:42:51;;;;;;;27.65;8.95;;;;;;;22.53;100.00;99530.59;1704924;84;21220;-70
2022/08/16 10:45:18;;;;;;;17.40;8.68;;;;;;;22.69;100.00;99532.12;1704854;84;21074;-69
2022/08/16 10:47:45;;;;;;;20.68;8.70;;;;;;;22.87;100.00;99531.30;1704995;84;21062;-68
2022/08/16 10:50:12;;;;;;;18.07;8.95;;;;;;;23.06;100.00;99529.89;1705015;83;21026;-69
2022/08/16 10:52:39;;;;;;;18.10;8.45;;;;;;;23.25;100.00;99529.73;1704903;84;21023;-69
2022/08/16 10:55:11;;;;;;;16.00;8.50;;;;;;;23.39;100.00;99532.89;1704921;84;21779;-70
2022/08/16 10:57:39;;;;;;;20.70;9.10;;;;;;;23.62;100.00;99546.20;1704600;84;21132;-70
2022/08/16 11:00:13;;;;;;;28.98;8.33;;;;;;;23.81;100.00;99543.02;1704803;84;21054;-69
2022/08/16 11:02:41;;;;;;;13.20;8.08;;;;;;;23.91;100.00;99543.79;1705031;84;21101;-69
2022/08/16 11:05:12;;;;;;;15.10;8.25;;;;;;;24.00;100.00;99548.22;1704456;84;21076;-71
2022/08/16 11:07:42;;;;;;;19.77;8.85;;;;;;;24.14;100.00;99552.18;1704392;84;21145;-70
2022/08/16 11:10:10;;;;;;;20.25;8.33;;;;;;;24.25;100.00;99550.58;1704379;84;21010;-70
2022/08/16 11:12:38;;;;;;;14.55;8.80;;;;;;;24.32;100.00;99552.61;1704624;84;22310;-70
2022/08/16 11:15:05;;;;;;;20.92;9.08;;;;;;;24.29;100.00;99556.47;1704667;84;21045;-71
2022/08/16 11:17:32;;;;;;;23.55;9.33;;;;;;;24.23;100.00;99558.47;1705100;84;21014;-70
2022/08/16 11:19:59;;;;;;;19.32;8.38;;;;;;;24.19;100.00;99561.13;1704784;84;21119;-69
2022/08/16 11:22:26;;;;;;;18.10;8.33;;;;;;;24.17;100.00;99562.61;1704626;84;21042;-70
2022/08/16 11:24:52;;;;;;;16.97;8.18;;;;;;;24.07;100.00;99562.72;1705097;84;21098;-69
2022/08/16 11:27:20;;;;;;;19.45;9.65;;;;;;;23.79;100.00;99575.97;1705068;84;21061;-69